sensor_id;sensor_type;location;lat;lon;timestamp;temperature;humidity
25991;DHT22;13779;-33.886;151.198;2023-06-19T00:02:30;11.00;99.90
25991;DHT22;13779;-33.886;151.198;2023-06-19T00:05:01;11.10;99.90
25991;DHT22;13779;-33.886;151.198;2023-06-19T00:07:31;11.20;99.90
25991;DHT22;13779;-33.886;151.198;2023-06-19T00:10:02;11.20;99.90
25991;DHT22;13779;-33.886;151.198;2023-06-19T00:12:33;11.20;99.90
25991;DHT22;13779;-33.886;151.198;2023-06-19T00:15:04;11.30;99.90
25991;DHT22;13779;-33.886;151.198;2023-06-19T00:17:35;11.40;99.90
25991;DHT22;13779;-33.886;151.198;2023-06-19T00:20:07;11.40;99.90
25991;DHT22;13779;-33.886;151.198;2023-06-19T00:22:38;11.50;99.90
25991;DHT22;13779;-33.886;151.198;2023-06-19T00:25:09;11.70;99.90
25991;DHT22;13779;-33.886;151.198;2023-06-19T00:27:40;11.80;99.90
25991;DHT22;13779;-33.886;151.198;2023-06-19T00:30:11;11.90;99.90
25991;DHT22;13779;-33.886;151.198;2023-06-19T00:32:41;12.00;99.90
25991;DHT22;13779;-33.886;151.198;2023-06-19T00:35:19;12.10;99.90
25991;DHT22;13779;-33.886;151.198;2023-06-19T00:37:51;12.20;99.90
25991;DHT22;13779;-33.886;151.198;2023-06-19T00:40:29;12.20;99.90
25991;DHT22;13779;-33.886;151.198;2023-06-19T00:43:01;12.30;99.90
25991;DHT22;13779;-33.886;151.198;2023-06-19T00:45:32;12.40;99.90
25991;DHT22;13779;-33.886;151.198;2023-06-19T00:48:04;12.50;99.90
25991;DHT22;13779;-33.886;151.198;2023-06-19T00:50:36;12.60;99.90
25991;DHT22;13779;-33.886;151.198;2023-06-19T00:53:07;12.70;99.90
25991;DHT22;13779;-33.886;151.198;2023-06-19T00:55:38;12.70;99.90
25991;DHT22;13779;-33.886;151.198;2023-06-19T00:58:09;12.70;99.90
25991;DHT22;13779;-33.886;151.198;2023-06-19T01:00:40;12.80;99.90
25991;DHT22;13779;-33.886;151.198;2023-06-19T01:03:17;12.90;99.90
25991;DHT22;13779;-33.886;151.198;2023-06-19T01:05:48;13.00;99.90
25991;DHT22;13779;-33.886;151.198;2023-06-19T01:11:18;13.10;99.90
25991;DHT22;13779;-33.886;151.198;2023-06-19T01:14:03;13.10;99.90
25991;DHT22;13779;-33.886;151.198;2023-06-19T01:16:36;13.20;99.90
25991;DHT22;13779;-33.886;151.198;2023-06-19T01:19:10;13.20;99.90
25991;DHT22;13779;-33.886;151.198;2023-06-19T01:21:45;13.30;99.90
25991;DHT22;13779;-33.886;151.198;2023-06-19T01:24:16;13.30;99.90
25991;DHT22;13779;-33.886;151.198;2023-06-19T01:26:47;13.30;99.90
25991;DHT22;13779;-33.886;151.198;2023-06-19T01:29:18;13.30;99.90
25991;DHT22;13779;-33.886;151.198;2023-06-19T01:31:57;13.50;99.90
25991;DHT22;13779;-33.886;151.198;2023-06-19T01:34:30;13.40;99.90
25991;DHT22;13779;-33.886;151.198;2023-06-19T01:37:05;13.40;99.90
25991;DHT22;13779;-33.886;151.198;2023-06-19T01:39:37;13.50;99.90
25991;DHT22;13779;-33.886;151.198;2023-06-19T01:42:09;13.60;99.90
25991;DHT22;13779;-33.886;151.198;2023-06-19T01:44:41;13.60;99.90
25991;DHT22;13779;-33.886;151.198;2023-06-19T01:47:12;13.60;99.90
25991;DHT22;13779;-33.886;151.198;2023-06-19T01:49:48;13.70;99.90
25991;DHT22;13779;-33.886;151.198;2023-06-19T01:52:20;13.70;99.90
25991;DHT22;13779;-33.886;151.198;2023-06-19T01:54:51;13.70;99.90
25991;DHT22;13779;-33.886;151.198;2023-06-19T01:57:22;13.80;99.90
25991;DHT22;13779;-33.886;151.198;2023-06-19T01:59:56;13.80;99.90
25991;DHT22;13779;-33.886;151.198;2023-06-19T02:02:26;13.90;99.90
25991;DHT22;13779;-33.886;151.198;2023-06-19T02:04:57;13.90;99.90
25991;DHT22;13779;-33.886;151.198;2023-06-19T02:07:28;13.90;99.90
25991;DHT22;13779;-33.886;151.198;2023-06-19T02:09:58;13.90;99.90
25991;DHT22;13779;-33.886;151.198;2023-06-19T02:12:29;14.00;99.90
25991;DHT22;13779;-33.886;151.198;2023-06-19T02:15:00;14.00;99.90
25991;DHT22;13779;-33.886;151.198;2023-06-19T02:17:30;14.10;99.90
25991;DHT22;13779;-33.886;151.198;2023-06-19T02:20:01;14.10;99.90
25991;DHT22;13779;-33.886;151.198;2023-06-19T02:22:32;14.10;99.90
25991;DHT22;13779;-33.886;151.198;2023-06-19T02:25:03;14.20;99.90
25991;DHT22;13779;-33.886;151.198;2023-06-19T02:27:33;14.30;99.90
25991;DHT22;13779;-33.886;151.198;2023-06-19T02:30:05;14.30;99.90
25991;DHT22;13779;-33.886;151.198;2023-06-19T02:32:36;14.40;99.90
25991;DHT22;13779;-33.886;151.198;2023-06-19T02:35:09;14.50;99.90
25991;DHT22;13779;-33.886;151.198;2023-06-19T02:37:40;14.70;99.90
25991;DHT22;13779;-33.886;151.198;2023-06-19T02:40:11;14.70;99.90
25991;DHT22;13779;-33.886;151.198;2023-06-19T02:42:41;14.80;99.90
25991;DHT22;13779;-33.886;151.198;2023-06-19T02:45:12;14.80;99.90
25991;DHT22;13779;-33.886;151.198;2023-06-19T02:47:43;14.80;99.90
25991;DHT22;13779;-33.886;151.198;2023-06-19T02:50:14;14.80;99.90
25991;DHT22;13779;-33.886;151.198;2023-06-19T02:52:44;14.90;99.90
25991;DHT22;13779;-33.886;151.198;2023-06-19T02:55:16;14.90;99.90
25991;DHT22;13779;-33.886;151.198;2023-06-19T02:57:46;15.00;99.90
25991;DHT22;13779;-33.886;151.198;2023-06-19T03:00:17;15.10;99.90
25991;DHT22;13779;-33.886;151.198;2023-06-19T03:02:48;15.30;99.90
25991;DHT22;13779;-33.886;151.198;2023-06-19T03:05:21;15.40;99.90
25991;DHT22;13779;-33.886;151.198;2023-06-19T03:07:51;15.50;99.90
25991;DHT22;13779;-33.886;151.198;2023-06-19T03:10:22;15.60;99.90
25991;DHT22;13779;-33.886;151.198;2023-06-19T03:12:52;15.60;99.90
25991;DHT22;13779;-33.886;151.198;2023-06-19T03:15:23;15.70;99.90
25991;DHT22;13779;-33.886;151.198;2023-06-19T03:17:54;15.80;99.90
25991;DHT22;13779;-33.886;151.198;2023-06-19T03:20:25;15.90;99.90
25991;DHT22;13779;-33.886;151.198;2023-06-19T03:22:56;16.00;99.90
25991;DHT22;13779;-33.886;151.198;2023-06-19T03:25:26;16.10;99.90
25991;DHT22;13779;-33.886;151.198;2023-06-19T03:28:03;16.20;99.90
25991;DHT22;13779;-33.886;151.198;2023-06-19T03:30:34;16.40;99.90
25991;DHT22;13779;-33.886;151.198;2023-06-19T03:33:05;16.40;99.90
25991;DHT22;13779;-33.886;151.198;2023-06-19T03:35:36;16.50;99.90
25991;DHT22;13779;-33.886;151.198;2023-06-19T03:38:06;16.70;99.90
25991;DHT22;13779;-33.886;151.198;2023-06-19T03:40:40;17.00;99.90
25991;DHT22;13779;-33.886;151.198;2023-06-19T03:43:11;17.30;99.90
25991;DHT22;13779;-33.886;151.198;2023-06-19T03:45:41;17.30;99.70
25991;DHT22;13779;-33.886;151.198;2023-06-19T03:48:12;17.40;99.50
25991;DHT22;13779;-33.886;151.198;2023-06-19T03:50:44;17.50;98.80
25991;DHT22;13779;-33.886;151.198;2023-06-19T03:53:15;17.50;98.20
25991;DHT22;13779;-33.886;151.198;2023-06-19T03:55:46;17.50;98.10
25991;DHT22;13779;-33.886;151.198;2023-06-19T03:58:16;17.60;97.90
25991;DHT22;13779;-33.886;151.198;2023-06-19T04:00:46;17.60;97.30
25991;DHT22;13779;-33.886;151.198;2023-06-19T04:03:17;17.80;97.10
25991;DHT22;13779;-33.886;151.198;2023-06-19T04:05:47;17.80;96.40
25991;DHT22;13779;-33.886;151.198;2023-06-19T04:08:17;17.80;96.00
25991;DHT22;13779;-33.886;151.198;2023-06-19T04:10:50;17.50;96.40
25991;DHT22;13779;-33.886;151.198;2023-06-19T04:13:20;17.40;96.70
25991;DHT22;13779;-33.886;151.198;2023-06-19T04:15:51;17.60;96.30
25991;DHT22;13779;-33.886;151.198;2023-06-19T04:18:21;17.60;96.20
25991;DHT22;13779;-33.886;151.198;2023-06-19T04:20:51;17.70;95.90
25991;DHT22;13779;-33.886;151.198;2023-06-19T04:23:22;17.70;95.70
25991;DHT22;13779;-33.886;151.198;2023-06-19T04:25:53;17.80;96.00
25991;DHT22;13779;-33.886;151.198;2023-06-19T04:28:23;17.90;95.90
25991;DHT22;13779;-33.886;151.198;2023-06-19T04:30:53;17.90;95.80
25991;DHT22;13779;-33.886;151.198;2023-06-19T04:33:29;17.80;95.50
25991;DHT22;13779;-33.886;151.198;2023-06-19T04:36:00;17.90;95.00
25991;DHT22;13779;-33.886;151.198;2023-06-19T04:38:30;17.80;94.80
25991;DHT22;13779;-33.886;151.198;2023-06-19T04:41:00;17.80;94.90
25991;DHT22;13779;-33.886;151.198;2023-06-19T04:43:30;17.80;94.90
25991;DHT22;13779;-33.886;151.198;2023-06-19T04:46:02;17.70;95.70
25991;DHT22;13779;-33.886;151.198;2023-06-19T04:48:33;17.50;95.70
25991;DHT22;13779;-33.886;151.198;2023-06-19T04:51:07;17.40;95.30
25991;DHT22;13779;-33.886;151.198;2023-06-19T04:53:38;17.30;94.80
25991;DHT22;13779;-33.886;151.198;2023-06-19T04:56:08;17.20;94.90
25991;DHT22;13779;-33.886;151.198;2023-06-19T04:58:38;17.20;94.70
25991;DHT22;13779;-33.886;151.198;2023-06-19T05:01:15;17.10;95.10
25991;DHT22;13779;-33.886;151.198;2023-06-19T05:03:46;17.00;95.00
25991;DHT22;13779;-33.886;151.198;2023-06-19T05:06:16;16.90;94.70
25991;DHT22;13779;-33.886;151.198;2023-06-19T05:08:46;16.80;94.50
25991;DHT22;13779;-33.886;151.198;2023-06-19T05:11:20;16.70;93.90
25991;DHT22;13779;-33.886;151.198;2023-06-19T05:13:50;16.70;91.50
25991;DHT22;13779;-33.886;151.198;2023-06-19T05:16:21;16.60;90.50
25991;DHT22;13779;-33.886;151.198;2023-06-19T05:18:51;16.60;90.60
25991;DHT22;13779;-33.886;151.198;2023-06-19T05:21:22;16.50;90.80
25991;DHT22;13779;-33.886;151.198;2023-06-19T05:23:52;16.50;90.60
25991;DHT22;13779;-33.886;151.198;2023-06-19T05:26:23;16.40;90.60
25991;DHT22;13779;-33.886;151.198;2023-06-19T05:28:53;16.40;90.60
25991;DHT22;13779;-33.886;151.198;2023-06-19T05:31:23;16.40;91.10
25991;DHT22;13779;-33.886;151.198;2023-06-19T05:33:53;16.30;91.30
25991;DHT22;13779;-33.886;151.198;2023-06-19T05:36:24;16.20;91.40
25991;DHT22;13779;-33.886;151.198;2023-06-19T05:38:54;16.20;91.60
25991;DHT22;13779;-33.886;151.198;2023-06-19T05:41:24;16.20;91.80
25991;DHT22;13779;-33.886;151.198;2023-06-19T05:43:55;16.20;91.70
25991;DHT22;13779;-33.886;151.198;2023-06-19T05:46:25;16.10;92.20
25991;DHT22;13779;-33.886;151.198;2023-06-19T05:48:56;16.20;92.60
25991;DHT22;13779;-33.886;151.198;2023-06-19T05:51:26;16.10;92.70
25991;DHT22;13779;-33.886;151.198;2023-06-19T05:53:56;16.10;92.40
25991;DHT22;13779;-33.886;151.198;2023-06-19T05:56:33;16.00;92.70
25991;DHT22;13779;-33.886;151.198;2023-06-19T05:59:03;16.00;92.60
25991;DHT22;13779;-33.886;151.198;2023-06-19T06:01:34;16.00;92.60
25991;DHT22;13779;-33.886;151.198;2023-06-19T06:04:04;16.00;92.80
25991;DHT22;13779;-33.886;151.198;2023-06-19T06:06:34;15.90;92.80
25991;DHT22;13779;-33.886;151.198;2023-06-19T06:09:06;15.90;93.20
25991;DHT22;13779;-33.886;151.198;2023-06-19T06:11:40;15.80;93.50
25991;DHT22;13779;-33.886;151.198;2023-06-19T06:14:10;15.80;93.70
25991;DHT22;13779;-33.886;151.198;2023-06-19T06:16:41;15.80;94.10
25991;DHT22;13779;-33.886;151.198;2023-06-19T06:19:11;15.70;94.50
25991;DHT22;13779;-33.886;151.198;2023-06-19T06:21:41;15.70;94.60
25991;DHT22;13779;-33.886;151.198;2023-06-19T06:24:12;15.70;95.40
25991;DHT22;13779;-33.886;151.198;2023-06-19T06:26:42;15.60;95.60
25991;DHT22;13779;-33.886;151.198;2023-06-19T06:29:12;15.60;96.10
25991;DHT22;13779;-33.886;151.198;2023-06-19T06:31:45;15.50;96.20
25991;DHT22;13779;-33.886;151.198;2023-06-19T06:34:16;15.50;96.40
25991;DHT22;13779;-33.886;151.198;2023-06-19T06:36:46;15.50;96.70
25991;DHT22;13779;-33.886;151.198;2023-06-19T06:39:31;15.40;97.10
25991;DHT22;13779;-33.886;151.198;2023-06-19T06:42:01;15.40;97.40
25991;DHT22;13779;-33.886;151.198;2023-06-19T06:44:32;15.30;97.30
25991;DHT22;13779;-33.886;151.198;2023-06-19T06:47:02;15.30;97.60
25991;DHT22;13779;-33.886;151.198;2023-06-19T06:49:33;15.30;97.70
25991;DHT22;13779;-33.886;151.198;2023-06-19T06:52:06;15.30;98.10
25991;DHT22;13779;-33.886;151.198;2023-06-19T06:54:36;15.20;98.30
25991;DHT22;13779;-33.886;151.198;2023-06-19T06:57:07;15.10;98.50
25991;DHT22;13779;-33.886;151.198;2023-06-19T06:59:37;15.10;98.90
25991;DHT22;13779;-33.886;151.198;2023-06-19T07:02:08;15.00;98.80
25991;DHT22;13779;-33.886;151.198;2023-06-19T07:04:38;15.00;99.00
25991;DHT22;13779;-33.886;151.198;2023-06-19T07:07:08;15.00;99.40
25991;DHT22;13779;-33.886;151.198;2023-06-19T07:09:39;15.00;99.30
25991;DHT22;13779;-33.886;151.198;2023-06-19T07:12:09;15.00;99.50
25991;DHT22;13779;-33.886;151.198;2023-06-19T07:14:39;14.90;99.80
25991;DHT22;13779;-33.886;151.198;2023-06-19T07:17:09;14.90;99.90
25991;DHT22;13779;-33.886;151.198;2023-06-19T07:19:40;14.90;99.90
25991;DHT22;13779;-33.886;151.198;2023-06-19T07:22:10;14.90;99.90
25991;DHT22;13779;-33.886;151.198;2023-06-19T07:24:41;14.80;99.90
25991;DHT22;13779;-33.886;151.198;2023-06-19T07:27:11;14.80;99.90
25991;DHT22;13779;-33.886;151.198;2023-06-19T07:29:43;14.80;99.90
25991;DHT22;13779;-33.886;151.198;2023-06-19T07:32:13;14.80;99.90
25991;DHT22;13779;-33.886;151.198;2023-06-19T07:34:44;14.80;99.90
25991;DHT22;13779;-33.886;151.198;2023-06-19T07:37:14;14.70;99.90
25991;DHT22;13779;-33.886;151.198;2023-06-19T07:39:48;14.70;99.90
25991;DHT22;13779;-33.886;151.198;2023-06-19T07:42:19;14.60;99.90
25991;DHT22;13779;-33.886;151.198;2023-06-19T07:44:50;14.60;99.90
25991;DHT22;13779;-33.886;151.198;2023-06-19T07:47:20;14.60;99.90
25991;DHT22;13779;-33.886;151.198;2023-06-19T07:49:51;14.50;99.90
25991;DHT22;13779;-33.886;151.198;2023-06-19T07:52:21;14.40;99.90
25991;DHT22;13779;-33.886;151.198;2023-06-19T07:54:58;14.50;99.90
25991;DHT22;13779;-33.886;151.198;2023-06-19T07:57:29;14.40;99.90
25991;DHT22;13779;-33.886;151.198;2023-06-19T07:59:59;14.40;99.90
25991;DHT22;13779;-33.886;151.198;2023-06-19T08:02:30;14.40;99.90
25991;DHT22;13779;-33.886;151.198;2023-06-19T08:05:00;14.40;99.90
25991;DHT22;13779;-33.886;151.198;2023-06-19T08:07:30;14.40;99.90
25991;DHT22;13779;-33.886;151.198;2023-06-19T08:10:01;14.40;99.90
25991;DHT22;13779;-33.886;151.198;2023-06-19T08:12:42;14.40;99.90
25991;DHT22;13779;-33.886;151.198;2023-06-19T08:15:12;14.40;99.90
25991;DHT22;13779;-33.886;151.198;2023-06-19T08:17:46;14.40;99.90
25991;DHT22;13779;-33.886;151.198;2023-06-19T08:20:16;14.40;99.90
25991;DHT22;13779;-33.886;151.198;2023-06-19T08:22:47;14.40;99.90
25991;DHT22;13779;-33.886;151.198;2023-06-19T08:25:17;14.40;99.90
25991;DHT22;13779;-33.886;151.198;2023-06-19T08:27:48;14.40;99.90
25991;DHT22;13779;-33.886;151.198;2023-06-19T08:30:18;14.40;99.90
25991;DHT22;13779;-33.886;151.198;2023-06-19T08:32:49;14.30;99.90
25991;DHT22;13779;-33.886;151.198;2023-06-19T08:35:19;14.30;99.90
25991;DHT22;13779;-33.886;151.198;2023-06-19T08:37:49;14.30;99.90
25991;DHT22;13779;-33.886;151.198;2023-06-19T08:40:20;14.20;99.90
25991;DHT22;13779;-33.886;151.198;2023-06-19T08:42:51;14.20;99.90
25991;DHT22;13779;-33.886;151.198;2023-06-19T08:45:21;14.20;99.90
25991;DHT22;13779;-33.886;151.198;2023-06-19T08:47:58;14.20;99.90
25991;DHT22;13779;-33.886;151.198;2023-06-19T08:50:32;14.20;99.90
25991;DHT22;13779;-33.886;151.198;2023-06-19T08:53:02;14.20;99.90
25991;DHT22;13779;-33.886;151.198;2023-06-19T08:55:33;14.20;99.90
25991;DHT22;13779;-33.886;151.198;2023-06-19T08:58:04;14.10;99.90
25991;DHT22;13779;-33.886;151.198;2023-06-19T09:00:34;14.10;99.90
25991;DHT22;13779;-33.886;151.198;2023-06-19T09:03:05;14.10;99.90
25991;DHT22;13779;-33.886;151.198;2023-06-19T09:05:43;14.00;99.90
25991;DHT22;13779;-33.886;151.198;2023-06-19T09:08:20;14.10;99.90
25991;DHT22;13779;-33.886;151.198;2023-06-19T09:11:01;14.00;99.90
25991;DHT22;13779;-33.886;151.198;2023-06-19T09:13:32;14.00;99.90
25991;DHT22;13779;-33.886;151.198;2023-06-19T09:16:08;14.00;99.90
25991;DHT22;13779;-33.886;151.198;2023-06-19T09:18:46;13.90;99.90
25991;DHT22;13779;-33.886;151.198;2023-06-19T09:21:20;14.00;99.90
25991;DHT22;13779;-33.886;151.198;2023-06-19T09:23:54;13.90;99.90
25991;DHT22;13779;-33.886;151.198;2023-06-19T09:26:24;13.90;99.90
25991;DHT22;13779;-33.886;151.198;2023-06-19T09:28:55;13.90;99.90
25991;DHT22;13779;-33.886;151.198;2023-06-19T09:31:43;13.80;99.90
25991;DHT22;13779;-33.886;151.198;2023-06-19T09:34:14;13.80;99.90
25991;DHT22;13779;-33.886;151.198;2023-06-19T09:36:46;13.80;99.90
25991;DHT22;13779;-33.886;151.198;2023-06-19T09:39:17;13.70;99.90
25991;DHT22;13779;-33.886;151.198;2023-06-19T09:41:50;13.70;99.90
25991;DHT22;13779;-33.886;151.198;2023-06-19T09:44:23;13.70;99.90
25991;DHT22;13779;-33.886;151.198;2023-06-19T09:46:59;13.70;99.90
25991;DHT22;13779;-33.886;151.198;2023-06-19T09:49:36;13.70;99.90
25991;DHT22;13779;-33.886;151.198;2023-06-19T09:52:07;13.70;99.90
25991;DHT22;13779;-33.886;151.198;2023-06-19T09:54:38;13.70;99.90
25991;DHT22;13779;-33.886;151.198;2023-06-19T09:57:13;13.60;99.90
25991;DHT22;13779;-33.886;151.198;2023-06-19T09:59:45;13.60;99.90
25991;DHT22;13779;-33.886;151.198;2023-06-19T10:02:26;13.60;99.90
25991;DHT22;13779;-33.886;151.198;2023-06-19T10:04:57;13.70;99.90
25991;DHT22;13779;-33.886;151.198;2023-06-19T10:07:37;13.70;99.90
25991;DHT22;13779;-33.886;151.198;2023-06-19T10:10:22;13.70;99.90
25991;DHT22;13779;-33.886;151.198;2023-06-19T10:13:00;13.70;99.90
25991;DHT22;13779;-33.886;151.198;2023-06-19T10:15:42;13.70;99.90
25991;DHT22;13779;-33.886;151.198;2023-06-19T10:18:17;13.70;99.90
25991;DHT22;13779;-33.886;151.198;2023-06-19T10:20:48;13.80;99.90
25991;DHT22;13779;-33.886;151.198;2023-06-19T10:23:25;13.80;99.90
25991;DHT22;13779;-33.886;151.198;2023-06-19T10:26:00;13.80;99.90
25991;DHT22;13779;-33.886;151.198;2023-06-19T10:28:32;13.80;99.90
25991;DHT22;13779;-33.886;151.198;2023-06-19T10:31:08;13.80;99.90
25991;DHT22;13779;-33.886;151.198;2023-06-19T10:33:39;13.80;99.90
25991;DHT22;13779;-33.886;151.198;2023-06-19T10:36:18;13.80;99.90
25991;DHT22;13779;-33.886;151.198;2023-06-19T10:38:52;13.70;99.90
25991;DHT22;13779;-33.886;151.198;2023-06-19T10:41:25;13.70;99.90
25991;DHT22;13779;-33.886;151.198;2023-06-19T10:44:05;13.70;99.90
25991;DHT22;13779;-33.886;151.198;2023-06-19T10:46:37;13.60;99.90
25991;DHT22;13779;-33.886;151.198;2023-06-19T10:49:08;13.60;99.90
25991;DHT22;13779;-33.886;151.198;2023-06-19T10:51:41;13.60;99.90
25991;DHT22;13779;-33.886;151.198;2023-06-19T10:54:14;13.60;99.90
25991;DHT22;13779;-33.886;151.198;2023-06-19T10:56:46;13.60;99.90
25991;DHT22;13779;-33.886;151.198;2023-06-19T10:59:18;13.60;99.90
25991;DHT22;13779;-33.886;151.198;2023-06-19T11:01:49;13.60;99.90
25991;DHT22;13779;-33.886;151.198;2023-06-19T11:04:20;13.60;99.90
25991;DHT22;13779;-33.886;151.198;2023-06-19T11:06:53;13.60;99.90
25991;DHT22;13779;-33.886;151.198;2023-06-19T11:09:23;13.60;99.90
25991;DHT22;13779;-33.886;151.198;2023-06-19T11:11:55;13.60;99.90
25991;DHT22;13779;-33.886;151.198;2023-06-19T11:14:30;13.60;99.90
25991;DHT22;13779;-33.886;151.198;2023-06-19T11:17:00;13.60;99.90
25991;DHT22;13779;-33.886;151.198;2023-06-19T11:19:31;13.50;99.90
25991;DHT22;13779;-33.886;151.198;2023-06-19T11:22:02;13.50;99.90
25991;DHT22;13779;-33.886;151.198;2023-06-19T11:24:33;13.60;99.90
25991;DHT22;13779;-33.886;151.198;2023-06-19T11:27:04;13.50;99.90
25991;DHT22;13779;-33.886;151.198;2023-06-19T11:29:35;13.50;99.90
25991;DHT22;13779;-33.886;151.198;2023-06-19T11:32:24;13.50;99.90
25991;DHT22;13779;-33.886;151.198;2023-06-19T11:35:06;13.50;99.90
25991;DHT22;13779;-33.886;151.198;2023-06-19T11:37:39;13.50;99.90
25991;DHT22;13779;-33.886;151.198;2023-06-19T11:40:10;13.50;99.90
25991;DHT22;13779;-33.886;151.198;2023-06-19T11:42:54;13.50;99.90
25991;DHT22;13779;-33.886;151.198;2023-06-19T11:45:24;13.50;99.90
25991;DHT22;13779;-33.886;151.198;2023-06-19T11:47:56;13.50;99.90
25991;DHT22;13779;-33.886;151.198;2023-06-19T11:50:28;13.50;99.90
25991;DHT22;13779;-33.886;151.198;2023-06-19T11:52:58;13.40;99.90
25991;DHT22;13779;-33.886;151.198;2023-06-19T11:55:31;13.40;99.90
25991;DHT22;13779;-33.886;151.198;2023-06-19T11:58:02;13.40;99.90
25991;DHT22;13779;-33.886;151.198;2023-06-19T12:00:33;13.50;99.90
25991;DHT22;13779;-33.886;151.198;2023-06-19T12:03:04;13.40;99.90
25991;DHT22;13779;-33.886;151.198;2023-06-19T12:05:36;13.40;99.90
25991;DHT22;13779;-33.886;151.198;2023-06-19T12:08:07;13.40;99.90
25991;DHT22;13779;-33.886;151.198;2023-06-19T12:10:38;13.30;99.90
25991;DHT22;13779;-33.886;151.198;2023-06-19T12:13:09;13.20;99.90
25991;DHT22;13779;-33.886;151.198;2023-06-19T12:15:39;13.20;99.90
25991;DHT22;13779;-33.886;151.198;2023-06-19T12:18:12;13.20;99.90
25991;DHT22;13779;-33.886;151.198;2023-06-19T12:20:43;13.10;99.90
25991;DHT22;13779;-33.886;151.198;2023-06-19T12:23:14;13.10;99.90
25991;DHT22;13779;-33.886;151.198;2023-06-19T12:25:45;13.10;99.90
25991;DHT22;13779;-33.886;151.198;2023-06-19T12:28:15;13.00;99.90
25991;DHT22;13779;-33.886;151.198;2023-06-19T12:30:49;13.00;99.90
25991;DHT22;13779;-33.886;151.198;2023-06-19T12:33:22;12.90;99.90
25991;DHT22;13779;-33.886;151.198;2023-06-19T12:35:53;12.90;99.90
25991;DHT22;13779;-33.886;151.198;2023-06-19T12:38:24;12.80;99.90
25991;DHT22;13779;-33.886;151.198;2023-06-19T12:40:54;12.80;99.90
25991;DHT22;13779;-33.886;151.198;2023-06-19T12:43:25;12.70;99.90
25991;DHT22;13779;-33.886;151.198;2023-06-19T12:45:56;12.70;99.90
25991;DHT22;13779;-33.886;151.198;2023-06-19T12:48:27;12.70;99.90
25991;DHT22;13779;-33.886;151.198;2023-06-19T12:50:57;12.60;99.90
25991;DHT22;13779;-33.886;151.198;2023-06-19T12:53:27;12.60;99.90
25991;DHT22;13779;-33.886;151.198;2023-06-19T12:55:59;12.50;99.90
25991;DHT22;13779;-33.886;151.198;2023-06-19T12:58:33;12.50;99.90
25991;DHT22;13779;-33.886;151.198;2023-06-19T13:01:03;12.50;99.90
25991;DHT22;13779;-33.886;151.198;2023-06-19T13:03:33;12.50;99.90
25991;DHT22;13779;-33.886;151.198;2023-06-19T13:06:04;12.50;99.90
25991;DHT22;13779;-33.886;151.198;2023-06-19T13:08:34;12.50;99.90
25991;DHT22;13779;-33.886;151.198;2023-06-19T13:11:05;12.40;99.90
25991;DHT22;13779;-33.886;151.198;2023-06-19T13:13:35;12.40;99.90
25991;DHT22;13779;-33.886;151.198;2023-06-19T13:16:05;12.30;99.90
25991;DHT22;13779;-33.886;151.198;2023-06-19T13:18:36;12.30;99.90
25991;DHT22;13779;-33.886;151.198;2023-06-19T13:21:06;12.30;99.90
25991;DHT22;13779;-33.886;151.198;2023-06-19T13:23:37;12.30;99.90
25991;DHT22;13779;-33.886;151.198;2023-06-19T13:26:07;12.20;99.90
25991;DHT22;13779;-33.886;151.198;2023-06-19T13:28:38;12.20;99.90
25991;DHT22;13779;-33.886;151.198;2023-06-19T13:31:08;12.20;99.90
25991;DHT22;13779;-33.886;151.198;2023-06-19T13:33:38;12.20;99.90
25991;DHT22;13779;-33.886;151.198;2023-06-19T13:36:08;12.10;99.90
25991;DHT22;13779;-33.886;151.198;2023-06-19T13:38:38;12.10;99.90
25991;DHT22;13779;-33.886;151.198;2023-06-19T13:41:11;12.10;99.90
25991;DHT22;13779;-33.886;151.198;2023-06-19T13:43:42;12.10;99.90
25991;DHT22;13779;-33.886;151.198;2023-06-19T13:46:12;12.00;99.90
25991;DHT22;13779;-33.886;151.198;2023-06-19T13:48:43;12.00;99.90
25991;DHT22;13779;-33.886;151.198;2023-06-19T13:51:13;12.00;99.90
25991;DHT22;13779;-33.886;151.198;2023-06-19T13:53:43;11.90;99.90
25991;DHT22;13779;-33.886;151.198;2023-06-19T13:56:13;11.90;99.90
25991;DHT22;13779;-33.886;151.198;2023-06-19T13:58:44;11.90;99.90
25991;DHT22;13779;-33.886;151.198;2023-06-19T14:01:15;11.80;99.90
25991;DHT22;13779;-33.886;151.198;2023-06-19T14:03:45;11.80;99.90
25991;DHT22;13779;-33.886;151.198;2023-06-19T14:06:15;11.80;99.90
25991;DHT22;13779;-33.886;151.198;2023-06-19T14:08:45;11.80;99.90
25991;DHT22;13779;-33.886;151.198;2023-06-19T14:11:16;11.80;99.90
25991;DHT22;13779;-33.886;151.198;2023-06-19T14:13:46;11.70;99.90
25991;DHT22;13779;-33.886;151.198;2023-06-19T14:16:16;11.70;99.90
25991;DHT22;13779;-33.886;151.198;2023-06-19T14:18:46;11.70;99.90
25991;DHT22;13779;-33.886;151.198;2023-06-19T14:21:17;11.70;99.90
25991;DHT22;13779;-33.886;151.198;2023-06-19T14:23:47;11.70;99.90
25991;DHT22;13779;-33.886;151.198;2023-06-19T14:26:17;11.70;99.90
25991;DHT22;13779;-33.886;151.198;2023-06-19T14:28:47;11.60;99.90
25991;DHT22;13779;-33.886;151.198;2023-06-19T14:31:17;11.60;99.90
25991;DHT22;13779;-33.886;151.198;2023-06-19T14:33:48;11.60;99.90
25991;DHT22;13779;-33.886;151.198;2023-06-19T14:36:18;11.60;99.90
25991;DHT22;13779;-33.886;151.198;2023-06-19T14:38:48;11.60;99.90
25991;DHT22;13779;-33.886;151.198;2023-06-19T14:41:18;11.60;99.90
25991;DHT22;13779;-33.886;151.198;2023-06-19T14:43:48;11.60;99.90
25991;DHT22;13779;-33.886;151.198;2023-06-19T14:46:19;11.60;99.90
25991;DHT22;13779;-33.886;151.198;2023-06-19T14:49:09;11.50;99.90
25991;DHT22;13779;-33.886;151.198;2023-06-19T14:51:41;11.50;99.90
25991;DHT22;13779;-33.886;151.198;2023-06-19T14:54:12;11.40;99.90
25991;DHT22;13779;-33.886;151.198;2023-06-19T14:56:45;11.30;99.90
25991;DHT22;13779;-33.886;151.198;2023-06-19T14:59:19;11.30;99.90
25991;DHT22;13779;-33.886;151.198;2023-06-19T15:01:50;11.30;99.90
25991;DHT22;13779;-33.886;151.198;2023-06-19T15:04:21;11.20;99.90
25991;DHT22;13779;-33.886;151.198;2023-06-19T15:06:53;11.20;99.90
25991;DHT22;13779;-33.886;151.198;2023-06-19T15:09:23;11.20;99.90
25991;DHT22;13779;-33.886;151.198;2023-06-19T15:11:54;11.20;99.90
25991;DHT22;13779;-33.886;151.198;2023-06-19T15:14:28;11.20;99.90
25991;DHT22;13779;-33.886;151.198;2023-06-19T15:16:59;11.20;99.90
25991;DHT22;13779;-33.886;151.198;2023-06-19T15:19:29;11.10;99.90